Terminal Aerodrome Forecast
Issued by NWS

Home | Current Version | Previous Version | Text Only | Print | Product List | Glossary On
Versions: 1 2 3 4 5 6 7 8 9 10 11 12
000
FTUS46 KSTO 301142
TAFRBL
TAF
KRBL 301142Z 3012/3112 32020G30KT P6SM VCSH BKN080
     FM301400 33016KT P6SM SCT150
     FM301700 35021G30KT P6SM FEW250
     FM310300 34014KT P6SM SKC=

USA.gov is the U.S. government's official web portal to all federal, state and local government web resources and services.